createdAt,value
2019-05-04T00:02:39.695Z,99.90
2019-05-04T00:05:22.272Z,99.90
2019-05-04T00:08:03.176Z,99.90
2019-05-04T00:10:44.880Z,99.90
2019-05-04T00:13:25.813Z,99.90
2019-05-04T00:16:06.036Z,99.90
2019-05-04T00:18:46.748Z,99.90
2019-05-04T00:21:27.676Z,99.90
2019-05-04T00:24:08.972Z,99.90
2019-05-04T00:26:49.618Z,99.90
2019-05-04T00:29:30.556Z,99.90
2019-05-04T00:32:12.853Z,99.90
2019-05-04T00:34:58.191Z,99.90
2019-05-04T00:37:39.067Z,99.90
2019-05-04T00:40:19.816Z,99.90
2019-05-04T00:43:00.388Z,99.90
2019-05-04T00:45:41.052Z,99.90
2019-05-04T00:48:21.876Z,99.90
2019-05-04T00:51:02.477Z,99.90
2019-05-04T00:53:43.093Z,99.90
2019-05-04T00:56:24.706Z,99.90
2019-05-04T00:59:07.631Z,99.90
2019-05-04T01:02:09.247Z,99.90
2019-05-04T01:04:50.264Z,99.90
2019-05-04T01:07:30.661Z,99.90
2019-05-04T01:10:14.579Z,99.90
2019-05-04T01:12:54.750Z,99.90
2019-05-04T01:15:35.287Z,99.90
2019-05-04T01:18:15.522Z,99.90
2019-05-04T01:20:56.440Z,99.90
2019-05-04T01:23:36.945Z,99.90
2019-05-04T01:26:17.737Z,99.90
2019-05-04T01:28:58.732Z,99.90
2019-05-04T01:31:39.784Z,99.90
2019-05-04T01:34:24.848Z,99.90
2019-05-04T01:37:31.999Z,99.90
2019-05-04T01:43:15.128Z,99.90
2019-05-04T01:45:56.169Z,99.90
2019-05-04T01:48:36.976Z,99.90
2019-05-04T01:51:18.040Z,99.90
2019-05-04T01:53:58.392Z,99.90
2019-05-04T01:56:40.592Z,99.90
2019-05-04T01:59:25.117Z,99.90
2019-05-04T02:02:06.591Z,99.90
2019-05-04T02:04:48.082Z,99.90
2019-05-04T02:07:42.150Z,99.90
2019-05-04T02:10:12.171Z,99.90
2019-05-04T02:12:52.373Z,99.90
2019-05-04T02:15:34.607Z,99.90
2019-05-04T02:18:15.125Z,99.90
2019-05-04T02:20:55.704Z,99.90
2019-05-04T02:23:36.681Z,99.90
2019-05-04T02:26:22.445Z,99.90
2019-05-04T02:29:09.120Z,99.90
2019-05-04T02:31:50.105Z,99.90
2019-05-04T02:34:31.107Z,99.90
2019-05-04T02:37:12.042Z,99.90
2019-05-04T02:39:52.654Z,99.90
2019-05-04T02:42:35.304Z,99.90
2019-05-04T02:45:16.074Z,99.90
2019-05-04T02:47:58.472Z,99.90
2019-05-04T02:50:45.977Z,99.90
2019-05-04T02:53:26.100Z,99.90
2019-05-04T02:56:06.394Z,99.90
2019-05-04T02:58:47.241Z,99.90
2019-05-04T03:01:27.988Z,99.90
2019-05-04T03:04:08.777Z,99.90
2019-05-04T03:06:49.897Z,99.90
2019-05-04T03:09:30.746Z,99.90
2019-05-04T03:12:11.772Z,99.90
2019-05-04T03:14:54.745Z,99.90
2019-05-04T03:17:37.104Z,99.90
2019-05-04T03:20:38.119Z,99.90
2019-05-04T03:23:20.266Z,99.90
2019-05-04T03:26:00.700Z,99.90
2019-05-04T03:28:41.636Z,99.90
2019-05-04T03:31:27.028Z,99.90
2019-05-04T03:34:08.140Z,99.90
2019-05-04T03:36:48.998Z,99.90
2019-05-04T03:39:30.232Z,99.90
2019-05-04T03:42:10.596Z,99.90
2019-05-04T03:44:52.701Z,99.90
2019-05-04T03:47:35.668Z,99.90
2019-05-04T03:50:21.512Z,99.90
2019-05-04T03:53:05.018Z,99.90
2019-05-04T03:55:45.621Z,99.90
2019-05-04T03:58:25.997Z,99.90
2019-05-04T04:01:06.727Z,99.90
2019-05-04T04:03:47.227Z,99.90
2019-05-04T04:06:28.036Z,99.90
2019-05-04T04:09:15.037Z,99.90
2019-05-04T04:11:51.364Z,99.90
2019-05-04T04:14:32.037Z,99.90
2019-05-04T04:17:15.137Z,99.90
2019-05-04T04:19:56.092Z,99.90
2019-05-04T04:22:37.634Z,99.90
2019-05-04T04:25:20.072Z,99.90
2019-05-04T04:28:17.937Z,99.90
2019-05-04T04:30:45.703Z,99.90
2019-05-04T04:33:25.921Z,99.90
2019-05-04T04:36:06.625Z,99.90
2019-05-04T04:38:47.149Z,99.90
2019-05-04T04:41:27.673Z,99.90
2019-05-04T04:44:08.256Z,99.90
2019-05-04T04:46:49.062Z,99.90
2019-05-04T04:49:29.498Z,99.90
2019-05-04T04:52:09.773Z,99.90
2019-05-04T04:54:51.133Z,99.90
2019-05-04T04:57:36.283Z,99.90
2019-05-04T05:03:20.013Z,99.90
2019-05-04T05:06:00.672Z,99.90
2019-05-04T05:08:41.251Z,99.90
2019-05-04T05:11:22.308Z,99.90
2019-05-04T05:14:04.154Z,99.90
2019-05-04T05:16:45.199Z,99.90
2019-05-04T05:19:25.807Z,99.90
2019-05-04T05:22:06.820Z,99.90
2019-05-04T05:24:47.824Z,99.90
2019-05-04T05:27:28.344Z,99.90
2019-05-04T05:30:09.411Z,99.90
2019-05-04T05:33:10.294Z,99.90
2019-05-04T05:35:54.350Z,99.90
2019-05-04T05:38:35.108Z,99.90
2019-05-04T05:41:17.139Z,99.90
2019-05-04T05:43:59.507Z,99.90
2019-05-04T05:49:55.691Z,99.90
2019-05-04T05:55:44.410Z,99.90
2019-05-04T06:01:25.442Z,99.90
2019-05-04T06:04:24.716Z,99.90
2019-05-04T06:07:29.057Z,99.90
2019-05-04T06:10:30.190Z,99.90
2019-05-04T06:13:15.157Z,99.90
2019-05-04T06:16:18.713Z,99.90
2019-05-04T06:22:09.819Z,99.90
2019-05-04T06:25:02.580Z,99.90
2019-05-04T06:27:56.856Z,99.90
2019-05-04T06:33:34.712Z,99.90
2019-05-04T06:36:20.335Z,99.90
2019-05-04T06:39:05.700Z,99.90
2019-05-04T06:41:48.331Z,99.90
2019-05-04T06:44:54.593Z,99.90
2019-05-04T06:47:31.956Z,99.90
2019-05-04T06:50:15.411Z,99.90
2019-05-04T06:56:27.850Z,99.90
2019-05-04T07:02:18.684Z,99.90
2019-05-04T07:05:11.547Z,99.90
2019-05-04T07:08:09.305Z,99.90
2019-05-04T07:11:12.300Z,99.90
2019-05-04T07:13:45.694Z,99.90
2019-05-04T07:16:38.992Z,99.90
2019-05-04T07:19:24.951Z,99.90
2019-05-04T07:22:14.985Z,99.90
2019-05-04T07:25:04.389Z,99.90
2019-05-04T07:27:57.802Z,99.90
2019-05-04T07:34:10.964Z,99.90
2019-05-04T07:37:20.021Z,99.90
2019-05-04T07:46:00.044Z,99.90
2019-05-04T07:48:49.054Z,99.90
2019-05-04T07:51:42.502Z,99.90
2019-05-04T07:54:29.516Z,99.90
2019-05-04T07:57:14.847Z,99.90
2019-05-04T08:00:06.601Z,99.90
2019-05-04T08:02:52.611Z,99.90
2019-05-04T08:08:57.890Z,99.90
2019-05-04T08:14:58.974Z,99.90
2019-05-04T08:17:38.603Z,99.90
2019-05-04T08:20:25.960Z,99.90
2019-05-04T08:23:14.631Z,99.90
2019-05-04T08:26:04.548Z,99.90
2019-05-04T08:28:54.905Z,99.90
2019-05-04T08:31:44.327Z,99.90
2019-05-04T08:34:31.751Z,99.90
2019-05-04T08:37:22.125Z,99.90
2019-05-04T08:40:09.347Z,99.90
2019-05-04T08:42:57.063Z,99.90
2019-05-04T08:45:37.635Z,99.90
2019-05-04T08:48:18.541Z,99.90
2019-05-04T08:51:20.594Z,99.90
2019-05-04T08:54:02.507Z,99.90
2019-05-04T08:56:47.289Z,99.90
2019-05-04T08:59:29.418Z,99.90
2019-05-04T09:05:05.135Z,99.90
2019-05-04T09:07:57.365Z,99.90
2019-05-04T09:10:29.148Z,99.90
2019-05-04T09:13:09.874Z,99.90
2019-05-04T09:15:57.442Z,99.90
2019-05-04T09:18:35.829Z,99.90
2019-05-04T09:21:19.441Z,99.90
2019-05-04T09:23:59.504Z,99.90
2019-05-04T09:26:41.978Z,99.90
2019-05-04T09:29:30.312Z,99.90
2019-05-04T09:32:09.751Z,99.90
2019-05-04T09:34:47.560Z,99.90
2019-05-04T09:37:28.188Z,99.90
2019-05-04T09:40:09.191Z,99.90
2019-05-04T09:42:52.053Z,99.90
2019-05-04T09:45:34.215Z,99.90
2019-05-04T09:48:15.642Z,99.90
2019-05-04T09:50:57.665Z,99.90
2019-05-04T09:53:38.799Z,99.90
2019-05-04T09:56:20.499Z,99.90
2019-05-04T09:59:04.622Z,99.90
2019-05-04T10:01:59.030Z,99.90
2019-05-04T10:04:27.028Z,99.90
2019-05-04T10:07:07.493Z,99.90
2019-05-04T10:09:48.316Z,99.90
2019-05-04T10:12:30.960Z,99.90
2019-05-04T10:18:15.247Z,99.90
2019-05-04T10:20:56.127Z,99.90
2019-05-04T10:23:36.300Z,99.90
2019-05-04T10:29:24.881Z,99.90
2019-05-04T10:32:05.877Z,99.90
2019-05-04T10:34:46.264Z,99.90
2019-05-04T10:37:27.021Z,99.90
2019-05-04T10:40:07.843Z,99.90
2019-05-04T10:42:59.365Z,99.90
2019-05-04T10:45:30.896Z,99.90
2019-05-04T10:48:11.955Z,99.90
2019-05-04T10:50:54.432Z,99.90
2019-05-04T10:53:35.320Z,99.90
2019-05-04T10:56:16.104Z,99.90
2019-05-04T10:58:57.184Z,99.90
2019-05-04T11:01:37.943Z,99.90
2019-05-04T11:04:18.637Z,99.90
2019-05-04T11:07:00.018Z,99.90
2019-05-04T11:09:40.320Z,99.90
2019-05-04T11:12:20.776Z,99.90
2019-05-04T11:15:01.777Z,99.90
2019-05-04T11:17:44.346Z,99.90
2019-05-04T11:20:24.619Z,99.90
2019-05-04T11:23:05.408Z,99.90
2019-05-04T11:28:41.152Z,99.90
2019-05-04T11:31:22.020Z,99.90
2019-05-04T11:34:02.709Z,99.90
2019-05-04T11:36:44.505Z,99.90
2019-05-04T11:39:25.291Z,99.90
2019-05-04T11:42:05.642Z,99.90
2019-05-04T11:44:46.194Z,99.90
2019-05-04T11:47:26.808Z,99.90
2019-05-04T11:50:07.269Z,99.90
2019-05-04T11:52:48.135Z,99.90
2019-05-04T11:55:28.820Z,99.90
2019-05-04T11:58:09.920Z,99.90
2019-05-04T12:00:50.895Z,99.90
2019-05-04T12:03:31.744Z,99.90
2019-05-04T12:06:14.744Z,99.90
2019-05-04T12:09:00.200Z,99.90
2019-05-04T12:11:41.191Z,99.90
2019-05-04T12:14:21.920Z,99.90
2019-05-04T12:17:02.354Z,99.90
2019-05-04T12:19:45.056Z,99.90
2019-05-04T12:22:25.224Z,99.90
2019-05-04T12:25:05.845Z,99.90
2019-05-04T12:27:46.183Z,99.90
2019-05-04T12:30:26.980Z,99.90
2019-05-04T12:33:07.687Z,98.50
2019-05-04T12:35:48.429Z,97.20
2019-05-04T12:38:29.220Z,96.50
2019-05-04T12:41:09.872Z,97.20
2019-05-04T12:43:59.126Z,96.50
2019-05-04T12:46:34.329Z,97.90
2019-05-04T12:49:15.368Z,98.20
2019-05-04T12:51:55.753Z,97.10
2019-05-04T12:54:36.333Z,96.70
2019-05-04T12:57:17.076Z,97.20
2019-05-04T12:59:57.628Z,97.20
2019-05-04T13:02:38.538Z,97.00
2019-05-04T13:05:27.941Z,96.60
2019-05-04T13:08:01.641Z,97.40
2019-05-04T13:10:42.210Z,97.60
2019-05-04T13:13:24.390Z,98.00
2019-05-04T13:16:05.316Z,98.10
2019-05-04T13:21:39.392Z,95.80
2019-05-04T13:24:19.696Z,95.20
2019-05-04T13:27:00.327Z,95.30
2019-05-04T13:29:40.828Z,94.50
2019-05-04T13:32:21.274Z,93.60
2019-05-04T13:35:01.937Z,89.90
2019-05-04T13:37:45.085Z,90.70
2019-05-04T13:40:25.712Z,90.50
2019-05-04T13:43:06.177Z,94.80
2019-05-04T13:45:47.168Z,93.00
2019-05-04T13:48:27.463Z,90.90
2019-05-04T13:51:08.160Z,87.50
2019-05-04T13:53:49.112Z,87.10
2019-05-04T13:56:31.593Z,87.60
2019-05-04T13:59:17.004Z,87.40
2019-05-04T14:02:17.328Z,86.40
2019-05-04T14:07:51.803Z,87.60
2019-05-04T14:10:32.435Z,80.20
2019-05-04T14:13:14.610Z,86.90
2019-05-04T14:15:55.587Z,90.00
2019-05-04T14:18:36.792Z,86.50
2019-05-04T14:21:17.466Z,89.90
2019-05-04T14:23:58.719Z,81.00
2019-05-04T14:26:39.708Z,88.10
2019-05-04T14:29:20.251Z,86.60
2019-05-04T14:32:00.683Z,88.50
2019-05-04T14:34:41.335Z,90.60
2019-05-04T14:37:21.876Z,90.00
2019-05-04T14:40:06.300Z,91.10
2019-05-04T14:42:47.148Z,93.00
2019-05-04T14:45:29.156Z,95.40
2019-05-04T14:51:17.095Z,98.40
2019-05-04T14:54:05.124Z,99.20
2019-05-04T14:56:52.856Z,99.90
2019-05-04T14:59:40.584Z,99.90
2019-05-04T15:02:28.307Z,99.90
2019-05-04T15:05:16.321Z,99.90
2019-05-04T15:08:04.450Z,99.90
2019-05-04T15:10:54.213Z,99.90
2019-05-04T15:13:44.672Z,99.90
2019-05-04T15:16:34.317Z,99.90
2019-05-04T15:25:29.269Z,99.90
2019-05-04T15:28:16.979Z,99.90
2019-05-04T15:31:05.164Z,99.90
2019-05-04T15:33:54.698Z,99.90
2019-05-04T15:36:44.671Z,99.90
2019-05-04T15:39:32.031Z,99.90
2019-05-04T15:42:19.755Z,99.90
2019-05-04T15:45:00.658Z,99.90
2019-05-04T15:47:41.240Z,99.90
2019-05-04T15:50:26.371Z,99.80
2019-05-04T15:53:09.073Z,99.90
2019-05-04T15:55:55.605Z,99.90
2019-05-04T15:58:39.352Z,99.90
2019-05-04T16:01:21.187Z,99.90
2019-05-04T16:04:04.170Z,99.90
2019-05-04T16:06:45.005Z,99.90
2019-05-04T16:09:25.088Z,99.90
2019-05-04T16:12:14.806Z,99.90
2019-05-04T16:15:04.857Z,99.90
2019-05-04T16:17:53.041Z,99.90
2019-05-04T16:20:40.992Z,99.90
2019-05-04T16:23:29.051Z,99.90
2019-05-04T16:26:16.771Z,99.90
2019-05-04T16:29:05.582Z,98.70
2019-05-04T16:31:54.475Z,99.20
2019-05-04T16:34:45.993Z,99.90
2019-05-04T16:37:34.780Z,99.30
2019-05-04T16:40:24.897Z,98.90
2019-05-04T16:43:12.255Z,97.70
2019-05-04T16:45:57.936Z,98.80
2019-05-04T16:48:35.892Z,96.70
2019-05-04T16:54:23.932Z,95.20
2019-05-04T16:57:05.077Z,93.50
2019-05-04T16:59:45.598Z,93.30
2019-05-04T17:02:30.663Z,93.20
2019-05-04T17:05:16.066Z,92.80
2019-05-04T17:07:56.839Z,94.00
2019-05-04T17:10:38.148Z,93.20
2019-05-04T17:13:18.885Z,92.90
2019-05-04T17:16:10.163Z,94.10
2019-05-04T17:18:42.526Z,94.60
2019-05-04T17:21:24.865Z,96.30
2019-05-04T17:24:05.768Z,95.00
2019-05-04T17:26:48.236Z,95.80
2019-05-04T17:29:29.517Z,97.00
2019-05-04T17:32:10.425Z,99.10
2019-05-04T17:34:51.204Z,99.00
2019-05-04T17:37:31.960Z,99.60
2019-05-04T17:40:14.676Z,99.90
2019-05-04T17:42:57.225Z,99.90
2019-05-04T17:45:38.264Z,99.90
2019-05-04T17:48:19.032Z,99.90
2019-05-04T17:51:20.167Z,99.90
2019-05-04T17:54:01.312Z,99.90
2019-05-04T17:56:41.816Z,99.90
2019-05-04T17:59:23.372Z,99.90
2019-05-04T18:02:05.453Z,99.90
2019-05-04T18:04:50.764Z,99.90
2019-05-04T18:07:31.171Z,99.90
2019-05-04T18:10:11.618Z,99.90
2019-05-04T18:12:56.837Z,99.90
2019-05-04T18:15:39.776Z,99.90
2019-05-04T18:21:25.003Z,99.90
2019-05-04T18:24:05.951Z,99.90
2019-05-04T18:26:46.880Z,99.90
2019-05-04T18:29:28.296Z,99.90
2019-05-04T18:32:09.571Z,99.90
2019-05-04T18:34:50.599Z,99.90
2019-05-04T18:37:31.455Z,99.90
2019-05-04T18:40:12.092Z,99.90
2019-05-04T18:42:54.435Z,99.90
2019-05-04T18:45:37.253Z,99.90
2019-05-04T18:48:38.404Z,99.90
2019-05-04T18:51:18.921Z,99.90
2019-05-04T18:53:59.652Z,99.90
2019-05-04T18:56:40.111Z,99.90
2019-05-04T18:59:20.755Z,99.90
2019-05-04T19:02:01.259Z,99.90
2019-05-04T19:04:44.541Z,99.90
2019-05-04T19:07:58.400Z,99.90
2019-05-04T19:10:28.323Z,99.90
2019-05-04T19:13:09.009Z,99.90
2019-05-04T19:15:49.626Z,99.90
2019-05-04T19:18:30.399Z,99.90
2019-05-04T19:21:11.255Z,99.90
2019-05-04T19:23:56.615Z,99.90
2019-05-04T19:26:37.400Z,99.90
2019-05-04T19:29:18.117Z,99.90
2019-05-04T19:31:58.665Z,99.90
2019-05-04T19:34:39.475Z,99.90
2019-05-04T19:37:19.784Z,99.90
2019-05-04T19:40:00.636Z,99.90
2019-05-04T19:42:44.939Z,99.90
2019-05-04T19:48:34.338Z,99.90
2019-05-04T19:51:14.816Z,99.90
2019-05-04T19:53:55.733Z,99.90
2019-05-04T19:56:36.690Z,99.90
2019-05-04T19:59:17.608Z,99.90
2019-05-04T20:01:58.224Z,99.90
2019-05-04T20:04:39.148Z,99.90
2019-05-04T20:07:21.631Z,99.90
2019-05-04T20:10:04.632Z,99.90
2019-05-04T20:12:47.052Z,99.90
2019-05-04T20:15:30.742Z,99.90
2019-05-04T20:18:10.460Z,99.90
2019-05-04T20:20:51.064Z,99.90
2019-05-04T20:23:31.777Z,99.90
2019-05-04T20:26:14.344Z,99.90
2019-05-04T20:28:55.276Z,99.90
2019-05-04T20:31:36.844Z,99.90
2019-05-04T20:34:17.395Z,99.90
2019-05-04T20:36:57.959Z,99.90
2019-05-04T20:39:38.784Z,99.90
2019-05-04T20:42:19.280Z,99.90
2019-05-04T20:45:01.618Z,99.90
2019-05-04T20:50:47.187Z,99.90
2019-05-04T20:53:29.192Z,99.90
2019-05-04T20:56:09.589Z,99.90
2019-05-04T20:58:50.040Z,99.90
2019-05-04T21:01:32.277Z,99.90
2019-05-04T21:04:14.938Z,99.90
2019-05-04T21:09:49.191Z,99.90
2019-05-04T21:12:30.209Z,99.90
2019-05-04T21:15:10.700Z,99.90
2019-05-04T21:18:03.687Z,99.90
2019-05-04T21:20:58.829Z,99.90
2019-05-04T21:23:39.080Z,99.90
2019-05-04T21:26:19.691Z,99.90
2019-05-04T21:29:01.486Z,99.90
2019-05-04T21:31:42.539Z,99.90
2019-05-04T21:34:22.975Z,99.90
2019-05-04T21:37:05.086Z,99.90
2019-05-04T21:39:46.495Z,99.90
2019-05-04T21:42:27.432Z,99.90
2019-05-04T21:45:28.673Z,99.90
2019-05-04T21:51:15.316Z,99.90
2019-05-04T21:53:56.246Z,99.90
2019-05-04T21:56:37.427Z,99.90
2019-05-04T21:59:18.425Z,99.90
2019-05-04T22:02:21.052Z,99.90
2019-05-04T22:05:04.506Z,99.90
2019-05-04T22:07:45.387Z,99.90
2019-05-04T22:10:26.481Z,99.90
2019-05-04T22:13:06.924Z,99.90
2019-05-04T22:15:48.521Z,99.90
2019-05-04T22:18:30.231Z,99.90
2019-05-04T22:21:11.476Z,99.90
2019-05-04T22:23:52.017Z,99.90
2019-05-04T22:26:34.474Z,99.90
2019-05-04T22:29:15.208Z,99.90
2019-05-04T22:31:55.972Z,99.90
2019-05-04T22:34:36.257Z,99.90
2019-05-04T22:37:21.375Z,99.90
2019-05-04T22:40:01.852Z,99.90
2019-05-04T22:42:42.417Z,99.90
2019-05-04T22:45:22.739Z,99.90
2019-05-04T22:48:04.592Z,99.90
2019-05-04T22:50:45.544Z,99.90
2019-05-04T22:53:28.087Z,99.90
2019-05-04T22:56:10.592Z,99.90
2019-05-04T22:58:55.487Z,99.90
2019-05-04T23:01:38.169Z,99.90
2019-05-04T23:07:14.378Z,99.90
2019-05-04T23:09:54.999Z,99.90
2019-05-04T23:12:35.321Z,99.90
2019-05-04T23:15:15.899Z,99.90
2019-05-04T23:17:56.184Z,99.90
2019-05-04T23:20:36.761Z,99.90
2019-05-04T23:23:18.451Z,99.90
2019-05-04T23:25:58.764Z,99.90
2019-05-04T23:28:39.244Z,99.90
2019-05-04T23:31:20.224Z,99.90
2019-05-04T23:34:00.939Z,99.90
2019-05-04T23:36:41.207Z,99.90
2019-05-04T23:39:21.655Z,99.90
2019-05-04T23:42:04.461Z,99.90
2019-05-04T23:44:45.545Z,99.90
2019-05-04T23:47:27.876Z,99.90
2019-05-04T23:50:08.728Z,99.90
2019-05-04T23:52:49.424Z,99.90
2019-05-04T23:55:32.918Z,99.90
